Time;durP1;ratioP1;P1;durP2;ratioP2;P2;SDS_P1;SDS_P2;PMS_P1;PMS_P2;Temp;Humidity;BMP_temperature;BMP_pressure;BME280_temperature;BME280_humidity;BME280_pressure;Samples;Min_cycle;Max_cycle;Signal;HPM_P1;HPM_P2
2023/06/18 00:02:18;;;;;;;;;;;;;;;20.67;49.13;99673.66;5319619;27;34879;-80
2023/06/18 00:04:46;;;;;;;;;;;;;;;20.62;49.63;99675.91;5319691;27;33983;-80
2023/06/18 00:07:13;;;;;;;;;;;;;;;20.61;49.46;99676.91;5301212;27;33589;-80
2023/06/18 00:09:40;;;;;;;;;;;;;;;20.84;48.72;99668.63;5301264;27;33693;-80
2023/06/18 00:12:08;;;;;;;;;;;;;;;20.60;49.52;99672.50;5319220;27;34164;-80
2023/06/18 00:14:36;;;;;;;;;;;;;;;20.51;49.70;99670.66;5319109;27;34334;-80
2023/06/18 00:17:04;;;;;;;;;;;;;;;20.49;49.88;99664.53;5319479;27;35149;-80
2023/06/18 00:19:32;;;;;;;;;;;;;;;20.48;49.96;99667.38;5319330;27;34182;-80
2023/06/18 00:21:59;;;;;;;;;;;;;;;20.41;50.35;99672.38;5301402;27;33144;-80
2023/06/18 00:24:27;;;;;;;;;;;;;;;20.24;50.67;99662.28;5319234;27;33099;-80
2023/06/18 00:26:55;;;;;;;;;;;;;;;20.25;50.76;99661.28;5301221;27;33722;-80
2023/06/18 00:29:22;;;;;;;;;;;;;;;20.30;50.46;99664.41;5319021;27;33553;-81
2023/06/18 00:31:49;;;;;;;;;;;;;;;20.18;50.95;99661.81;5301395;27;34261;-80
2023/06/18 00:34:17;;;;;;;;;;;;;;;20.26;50.71;99663.81;5321165;27;33161;-80
2023/06/18 00:36:50;;;;;;;;;;;;;;;20.15;51.14;99666.59;5301034;27;33355;-81
2023/06/18 00:39:18;;;;;;;;;;;;;;;20.13;51.23;99668.53;5319908;27;34839;-80
2023/06/18 00:41:46;;;;;;;;;;;;;;;20.04;51.44;99664.81;5300971;27;33814;-81
2023/06/18 00:44:13;;;;;;;;;;;;;;;20.19;51.05;99668.88;5301204;27;33542;-81
2023/06/18 00:46:46;;;;;;;;;;;;;;;20.26;50.79;99671.00;5301048;27;34280;-81
2023/06/18 00:49:18;;;;;;;;;;;;;;;19.84;52.25;99681.72;5317707;27;33752;-80
2023/06/18 00:51:46;;;;;;;;;;;;;;;19.99;51.47;99680.44;5301703;27;33807;-81
2023/06/18 00:54:16;;;;;;;;;;;;;;;20.05;51.33;99671.88;5320729;27;33946;-81
2023/06/18 00:56:53;;;;;;;;;;;;;;;19.90;52.03;99668.69;5319338;27;34794;-81
2023/06/18 00:59:22;;;;;;;;;;;;;;;19.76;52.78;99676.19;5319328;27;33406;-81
2023/06/18 01:01:51;;;;;;;;;;;;;;;19.91;52.04;99673.03;5318760;27;33958;-81
2023/06/18 01:04:20;;;;;;;;;;;;;;;19.77;52.42;99672.50;5302457;27;33757;-81
2023/06/18 01:06:52;;;;;;;;;;;;;;;19.95;51.89;99673.66;5320203;27;34458;-81
2023/06/18 01:09:21;;;;;;;;;;;;;;;19.90;51.80;99670.50;5301956;27;33701;-81
2023/06/18 01:11:51;;;;;;;;;;;;;;;19.84;51.88;99673.69;5320025;27;34056;-81
2023/06/18 01:14:19;;;;;;;;;;;;;;;20.00;51.81;99678.63;5284034;27;32159;-81
2023/06/18 01:16:47;;;;;;;;;;;;;;;20.15;51.26;99672.78;5320174;27;34583;-81
2023/06/18 01:19:21;;;;;;;;;;;;;;;20.17;51.10;99675.31;5319985;27;34911;-81
2023/06/18 01:21:50;;;;;;;;;;;;;;;20.25;50.92;99672.00;5320069;27;34253;-82
2023/06/18 01:24:19;;;;;;;;;;;;;;;20.20;51.10;99670.56;5283799;27;33121;-82
2023/06/18 01:26:47;;;;;;;;;;;;;;;20.44;50.55;99672.13;5319838;27;34168;-82
2023/06/18 01:29:16;;;;;;;;;;;;;;;20.35;50.82;99667.53;5320093;27;34196;-82
2023/06/18 01:31:44;;;;;;;;;;;;;;;20.30;50.97;99665.25;5319790;27;33573;-82
2023/06/18 01:34:12;;;;;;;;;;;;;;;20.08;51.84;99676.13;5319866;27;32988;-82
2023/06/18 01:36:47;;;;;;;;;;;;;;;20.09;51.81;99667.97;5301596;27;33639;-82
2023/06/18 01:39:15;;;;;;;;;;;;;;;20.16;51.41;99666.44;5320321;27;35027;-82
2023/06/18 01:41:42;;;;;;;;;;;;;;;20.01;51.75;99674.94;5319436;27;34282;-82
2023/06/18 01:44:12;;;;;;;;;;;;;;;20.06;51.66;99673.56;5319903;27;33735;-82
2023/06/18 01:46:40;;;;;;;;;;;;;;;20.13;51.44;99682.81;5317905;27;34024;-81
2023/06/18 01:49:09;;;;;;;;;;;;;;;20.13;51.46;99677.44;5317735;27;35060;-81
2023/06/18 01:51:38;;;;;;;;;;;;;;;20.01;51.76;99667.75;5318048;27;33909;-81
2023/06/18 01:54:05;;;;;;;;;;;;;;;20.03;51.70;99686.38;5300806;27;32946;-81
2023/06/18 01:56:35;;;;;;;;;;;;;;;20.06;51.67;99688.81;5301774;27;33928;-80
2023/06/18 01:59:03;;;;;;;;;;;;;;;19.90;52.21;99683.91;5301580;27;34622;-81
2023/06/18 02:01:36;;;;;;;;;;;;;;;19.91;52.18;99685.59;5301790;27;34664;-81
2023/06/18 02:04:04;;;;;;;;;;;;;;;19.89;52.25;99688.41;5301222;27;33105;-81
2023/06/18 02:06:31;;;;;;;;;;;;;;;19.96;51.94;99686.06;5301439;27;34260;-81
2023/06/18 02:08:58;;;;;;;;;;;;;;;19.94;51.94;99686.19;5319425;27;33098;-81
2023/06/18 02:11:26;;;;;;;;;;;;;;;19.83;52.38;99688.91;5319582;27;34686;-81
2023/06/18 02:13:54;;;;;;;;;;;;;;;19.75;52.73;99687.84;5320217;27;32685;-81
2023/06/18 02:16:21;;;;;;;;;;;;;;;19.90;52.15;99681.22;5300958;27;34126;-81
2023/06/18 02:18:49;;;;;;;;;;;;;;;19.76;52.75;99698.47;5319882;27;33995;-81
2023/06/18 02:21:17;;;;;;;;;;;;;;;19.86;52.36;99693.19;5300868;27;34771;-81
2023/06/18 02:23:45;;;;;;;;;;;;;;;19.79;52.57;99697.34;5319611;27;33759;-81
2023/06/18 02:26:13;;;;;;;;;;;;;;;19.58;53.40;99691.91;5301860;27;33906;-82
2023/06/18 02:28:41;;;;;;;;;;;;;;;19.55;53.41;99690.31;5319697;27;34989;-81
2023/06/18 02:31:08;;;;;;;;;;;;;;;19.57;53.44;99693.75;5319016;27;34890;-81
2023/06/18 02:33:36;;;;;;;;;;;;;;;19.61;53.21;99694.38;5319582;27;32948;-81
2023/06/18 02:36:03;;;;;;;;;;;;;;;19.63;52.98;99698.63;5301351;27;34602;-81
2023/06/18 02:38:31;;;;;;;;;;;;;;;19.57;53.39;99704.44;5320548;27;35043;-81
2023/06/18 02:40:58;;;;;;;;;;;;;;;19.52;53.88;99703.13;5319455;27;34456;-81
2023/06/18 02:43:28;;;;;;;;;;;;;;;19.52;53.80;99700.47;5320904;27;32782;-81
2023/06/18 02:45:55;;;;;;;;;;;;;;;19.48;53.86;99699.84;5319734;27;34786;-81
2023/06/18 02:48:23;;;;;;;;;;;;;;;19.48;53.80;99715.06;5319265;27;35092;-81
2023/06/18 02:50:50;;;;;;;;;;;;;;;19.39;54.07;99706.81;5319742;27;33773;-81
2023/06/18 02:53:18;;;;;;;;;;;;;;;19.39;53.95;99717.53;5301525;27;33430;-81
2023/06/18 02:55:46;;;;;;;;;;;;;;;19.35;54.19;99710.72;5301491;27;33025;-80
2023/06/18 02:58:27;;;;;;;;;;;;;;;19.33;54.20;99731.41;5319863;27;34330;-81
2023/06/18 03:00:55;;;;;;;;;;;;;;;19.21;54.59;99728.88;5302159;27;33871;-81
2023/06/18 03:03:24;;;;;;;;;;;;;;;19.31;54.44;99724.47;5320905;27;33030;-81
2023/06/18 03:05:52;;;;;;;;;;;;;;;19.24;54.80;99731.31;5283258;27;33160;-81
2023/06/18 03:08:20;;;;;;;;;;;;;;;19.43;54.15;99734.19;5302298;27;32586;-81
2023/06/18 03:10:48;;;;;;;;;;;;;;;19.34;54.51;99733.09;5319757;27;34413;-81
2023/06/18 03:13:15;;;;;;;;;;;;;;;19.25;54.81;99733.84;5319528;27;32759;-81
2023/06/18 03:15:43;;;;;;;;;;;;;;;19.29;54.50;99731.78;5319592;27;34047;-81
2023/06/18 03:18:12;;;;;;;;;;;;;;;19.30;54.56;99736.16;5319626;27;33755;-81
2023/06/18 03:20:42;;;;;;;;;;;;;;;19.27;55.04;99731.88;5319630;27;34868;-81
2023/06/18 03:23:10;;;;;;;;;;;;;;;19.29;54.84;99742.50;5301742;27;33164;-81
2023/06/18 03:25:38;;;;;;;;;;;;;;;19.31;54.73;99735.19;5301683;27;34177;-81
2023/06/18 03:28:07;;;;;;;;;;;;;;;19.32;55.00;99734.19;5319657;27;33924;-81
2023/06/18 03:30:36;;;;;;;;;;;;;;;19.39;55.10;99740.78;5320021;27;34362;-81
2023/06/18 03:33:04;;;;;;;;;;;;;;;19.42;54.96;99732.50;5301701;27;33863;-81
2023/06/18 03:35:32;;;;;;;;;;;;;;;19.35;55.34;99734.81;5319884;27;34462;-81
2023/06/18 03:38:00;;;;;;;;;;;;;;;19.42;54.47;99735.19;5319523;27;34268;-80
2023/06/18 03:40:27;;;;;;;;;;;;;;;19.52;54.57;99737.94;5319481;27;34274;-80
2023/06/18 03:42:55;;;;;;;;;;;;;;;19.75;53.46;99738.75;5301063;27;32471;-81
2023/06/18 03:45:23;;;;;;;;;;;;;;;19.84;53.17;99737.97;5301478;27;34293;-81
2023/06/18 03:47:51;;;;;;;;;;;;;;;19.99;52.96;99742.09;5320812;27;34155;-82
2023/06/18 03:50:18;;;;;;;;;;;;;;;20.07;52.72;99744.97;5319049;27;34379;-81
2023/06/18 03:52:47;;;;;;;;;;;;;;;20.10;52.67;99743.88;5320045;27;32855;-81
2023/06/18 03:55:15;;;;;;;;;;;;;;;20.27;52.35;99745.97;5300816;27;35163;-81
2023/06/18 03:57:43;;;;;;;;;;;;;;;20.33;52.03;99740.09;5301526;27;32926;-81
2023/06/18 04:00:11;;;;;;;;;;;;;;;20.40;52.29;99740.41;5319766;27;34888;-81
2023/06/18 04:02:39;;;;;;;;;;;;;;;20.40;52.04;99746.59;5301530;27;33016;-81
2023/06/18 04:05:08;;;;;;;;;;;;;;;20.59;51.60;99734.34;5301661;27;34364;-81
2023/06/18 04:07:36;;;;;;;;;;;;;;;20.66;51.24;99733.69;5318964;27;33022;-82
2023/06/18 04:10:04;;;;;;;;;;;;;;;20.62;51.26;99739.44;5319978;27;33535;-82
2023/06/18 04:12:32;;;;;;;;;;;;;;;20.52;52.05;99739.41;5301328;27;33436;-82
2023/06/18 04:15:00;;;;;;;;;;;;;;;20.68;51.49;99741.59;5301446;27;33093;-82
2023/06/18 04:17:37;;;;;;;;;;;;;;;20.78;51.08;99742.50;5319158;27;34984;-82
2023/06/18 04:20:05;;;;;;;;;;;;;;;20.94;51.17;99748.25;5301658;27;34400;-81
2023/06/18 04:22:33;;;;;;;;;;;;;;;21.16;50.20;99749.00;5283216;27;34006;-81
2023/06/18 04:25:02;;;;;;;;;;;;;;;21.27;49.96;99748.94;5319657;27;33898;-81
2023/06/18 04:27:30;;;;;;;;;;;;;;;21.32;49.95;99754.78;5283788;27;35474;-81
2023/06/18 04:29:58;;;;;;;;;;;;;;;21.34;49.99;99757.31;5301234;27;32678;-81
2023/06/18 04:32:26;;;;;;;;;;;;;;;21.03;50.84;99754.63;5319994;27;33357;-81
2023/06/18 04:34:54;;;;;;;;;;;;;;;21.20;50.45;99753.97;5321257;27;34892;-81
2023/06/18 04:37:22;;;;;;;;;;;;;;;21.40;49.72;99762.13;5320958;27;34072;-81
2023/06/18 04:39:49;;;;;;;;;;;;;;;21.17;50.33;99756.94;5319335;27;34002;-81
2023/06/18 04:42:17;;;;;;;;;;;;;;;21.51;49.50;99756.66;5319027;27;33411;-80
2023/06/18 04:44:44;;;;;;;;;;;;;;;21.75;49.12;99761.66;5264646;27;32583;-80
2023/06/18 04:47:12;;;;;;;;;;;;;;;21.82;48.98;99761.94;5320661;27;34988;-81
2023/06/18 04:49:40;;;;;;;;;;;;;;;21.75;48.87;99767.03;5283058;27;33557;-81
2023/06/18 04:52:08;;;;;;;;;;;;;;;21.84;48.57;99766.19;5301297;27;31935;-81
2023/06/18 04:54:36;;;;;;;;;;;;;;;21.72;48.94;99775.34;5320809;27;34220;-81
2023/06/18 04:57:04;;;;;;;;;;;;;;;21.91;48.83;99769.16;5300978;27;34671;-82
2023/06/18 04:59:31;;;;;;;;;;;;;;;21.99;48.58;99772.00;5263217;27;34699;-81
2023/06/18 05:01:59;;;;;;;;;;;;;;;22.22;48.11;99769.91;5317825;27;33787;-82
2023/06/18 05:04:27;;;;;;;;;;;;;;;22.18;47.76;99772.03;5280169;27;33415;-82
2023/06/18 05:06:55;;;;;;;;;;;;;;;22.15;48.05;99780.37;5298393;27;33656;-82
2023/06/18 05:09:26;;;;;;;;;;;;;;;22.10;47.79;99779.06;5281057;27;33869;-81
2023/06/18 05:11:53;;;;;;;;;;;;;;;22.32;47.11;99786.06;5280185;27;32074;-81
2023/06/18 05:14:21;;;;;;;;;;;;;;;22.13;48.02;99787.75;5298912;27;33755;-81
2023/06/18 05:16:49;;;;;;;;;;;;;;;22.18;47.64;99787.31;5297522;27;33325;-81
2023/06/18 05:19:17;;;;;;;;;;;;;;;21.95;47.95;99784.03;5262165;27;33581;-82
2023/06/18 05:21:44;;;;;;;;;;;;;;;22.60;47.30;99795.94;5297936;27;33141;-82
2023/06/18 05:24:11;;;;;;;;;;;;;;;22.14;47.55;99794.81;5297740;27;33489;-81
2023/06/18 05:26:39;;;;;;;;;;;;;;;21.61;48.78;99792.44;5280113;27;34694;-81
2023/06/18 05:29:07;;;;;;;;;;;;;;;21.96;48.62;99799.16;5316828;27;34175;-81
2023/06/18 05:31:34;;;;;;;;;;;;;;;21.96;47.99;99796.47;5279813;27;33087;-81
2023/06/18 05:34:02;;;;;;;;;;;;;;;22.09;48.06;99797.06;5317860;27;34706;-81
2023/06/18 05:36:30;;;;;;;;;;;;;;;22.49;47.31;99805.00;5297994;27;34298;-81
2023/06/18 05:39:02;;;;;;;;;;;;;;;22.48;47.47;99807.84;5279809;27;33341;-81
2023/06/18 05:41:30;;;;;;;;;;;;;;;22.33;47.82;99798.50;5318067;27;33719;-81
2023/06/18 05:43:58;;;;;;;;;;;;;;;22.52;47.92;99803.87;5279848;27;33838;-81
2023/06/18 05:46:25;;;;;;;;;;;;;;;22.60;47.63;99812.09;5297378;27;33198;-80
2023/06/18 05:48:53;;;;;;;;;;;;;;;22.97;47.01;99806.75;5298768;27;34436;-81
2023/06/18 05:51:21;;;;;;;;;;;;;;;23.11;47.43;99805.44;5298934;27;34139;-81
2023/06/18 05:53:49;;;;;;;;;;;;;;;23.21;47.11;99803.56;5299241;27;34264;-81
2023/06/18 05:56:17;;;;;;;;;;;;;;;23.32;46.66;99812.47;5299263;27;33849;-81
2023/06/18 05:58:45;;;;;;;;;;;;;;;23.25;46.87;99806.81;5262854;27;33199;-81
2023/06/18 06:01:12;;;;;;;;;;;;;;;23.23;46.81;99816.91;5298961;27;33667;-81
2023/06/18 06:03:40;;;;;;;;;;;;;;;23.66;46.38;99810.91;5279357;27;34554;-81
2023/06/18 06:06:08;;;;;;;;;;;;;;;23.57;45.88;99809.09;5319046;27;33807;-81
2023/06/18 06:08:36;;;;;;;;;;;;;;;23.96;46.02;99806.19;5263275;27;34208;-80
2023/06/18 06:11:05;;;;;;;;;;;;;;;23.92;45.58;99810.19;5281513;27;32497;-81
2023/06/18 06:13:33;;;;;;;;;;;;;;;23.73;45.21;99817.37;5299815;27;34900;-81
2023/06/18 06:16:04;;;;;;;;;;;;;;;23.79;45.29;99817.81;5297587;27;34773;-81
2023/06/18 06:18:33;;;;;;;;;;;;;;;24.20;45.35;99819.91;5279123;27;32814;-81
2023/06/18 06:21:01;;;;;;;;;;;;;;;24.67;44.59;99811.56;5279892;27;31759;-81
2023/06/18 06:23:30;;;;;;;;;;;;;;;24.76;44.70;99816.03;5242620;27;33592;-81
2023/06/18 06:25:58;;;;;;;;;;;;;;;24.44;44.39;99815.78;5298898;27;34671;-81
2023/06/18 06:28:26;;;;;;;;;;;;;;;24.80;43.34;99815.72;5298387;27;33984;-81
2023/06/18 06:30:53;;;;;;;;;;;;;;;24.83;42.81;99815.38;5262312;27;33245;-81
2023/06/18 06:33:21;;;;;;;;;;;;;;;25.03;42.96;99806.94;5299181;27;33565;-81
2023/06/18 06:35:49;;;;;;;;;;;;;;;25.28;42.42;99807.09;5299129;27;33961;-81
2023/06/18 06:38:17;;;;;;;;;;;;;;;25.36;42.72;99811.72;5298559;27;33887;-81
2023/06/18 06:40:45;;;;;;;;;;;;;;;25.50;43.43;99820.06;5262217;27;31920;-81
2023/06/18 06:43:12;;;;;;;;;;;;;;;25.32;43.64;99815.75;5299125;27;34633;-81
2023/06/18 06:45:43;;;;;;;;;;;;;;;25.52;42.48;99822.56;5263887;27;33016;-80
2023/06/18 06:48:11;;;;;;;;;;;;;;;25.64;42.61;99826.69;5299182;27;33775;-81
2023/06/18 06:50:38;;;;;;;;;;;;;;;25.60;42.02;99819.06;5280793;27;33767;-81
2023/06/18 06:53:08;;;;;;;;;;;;;;;26.07;41.88;99815.88;5299268;27;33381;-80
2023/06/18 06:55:36;;;;;;;;;;;;;;;26.14;41.74;99823.13;5263152;27;33501;-80
2023/06/18 06:58:04;;;;;;;;;;;;;;;26.40;40.23;99814.03;5298444;27;34430;-81
2023/06/18 07:00:31;;;;;;;;;;;;;;;26.26;40.60;99824.50;5280174;27;33553;-81
2023/06/18 07:02:59;;;;;;;;;;;;;;;26.29;39.62;99813.34;5298219;27;33525;-82
2023/06/18 07:05:28;;;;;;;;;;;;;;;26.41;41.21;99818.44;5281295;27;34607;-81
2023/06/18 07:07:55;;;;;;;;;;;;;;;25.69;41.46;99813.53;5298358;27;34872;-81
2023/06/18 07:10:23;;;;;;;;;;;;;;;26.23;41.48;99816.72;5298704;27;32813;-81
2023/06/18 07:12:51;;;;;;;;;;;;;;;26.68;38.48;99814.56;5298820;27;34479;-81
2023/06/18 07:15:18;;;;;;;;;;;;;;;26.29;39.48;99809.78;5298519;27;34110;-81
2023/06/18 07:17:46;;;;;;;;;;;;;;;26.40;39.42;99811.34;5280589;27;33930;-81
2023/06/18 07:20:14;;;;;;;;;;;;;;;26.60;40.50;99807.31;5280961;27;33383;-82
2023/06/18 07:22:42;;;;;;;;;;;;;;;26.68;37.94;99807.31;5280051;27;34815;-82
2023/06/18 07:25:10;;;;;;;;;;;;;;;27.00;37.71;99808.25;5279645;27;33333;-82
2023/06/18 07:27:37;;;;;;;;;;;;;;;27.29;37.30;99807.69;5280323;27;34056;-82
2023/06/18 07:30:05;;;;;;;;;;;;;;;27.18;37.05;99798.06;5262164;27;32264;-82
2023/06/18 07:32:35;;;;;;;;;;;;;;;27.19;38.00;99801.63;5299118;27;34037;-82
2023/06/18 07:35:06;;;;;;;;;;;;;;;27.09;37.42;99801.81;5261723;27;33331;-82
2023/06/18 07:37:34;;;;;;;;;;;;;;;27.70;35.46;99802.09;5279494;27;33710;-82
2023/06/18 07:40:02;;;;;;;;;;;;;;;27.43;35.66;99801.53;5280875;27;34310;-81
2023/06/18 07:42:30;;;;;;;;;;;;;;;27.60;35.04;99805.03;5297851;27;34075;-82
2023/06/18 07:44:57;;;;;;;;;;;;;;;27.68;34.49;99799.59;5296868;27;34001;-82
2023/06/18 07:47:25;;;;;;;;;;;;;;;27.74;34.67;99790.75;5279883;27;34514;-81
2023/06/18 07:49:53;;;;;;;;;;;;;;;27.29;34.60;99799.56;5280077;27;32678;-81
2023/06/18 07:52:22;;;;;;;;;;;;;;;27.84;33.59;99778.84;5278708;27;32868;-82
2023/06/18 07:54:53;;;;;;;;;;;;;;;27.63;35.44;99785.72;5318172;27;34760;-81
2023/06/18 07:57:22;;;;;;;;;;;;;;;27.39;35.92;99797.47;5281075;27;33798;-82
2023/06/18 07:59:50;;;;;;;;;;;;;;;27.41;34.41;99797.31;5280581;27;33025;-82
2023/06/18 08:02:18;;;;;;;;;;;;;;;27.86;33.92;99783.03;5280462;27;34083;-82
2023/06/18 08:04:46;;;;;;;;;;;;;;;27.79;33.84;99788.34;5262822;27;33133;-81
2023/06/18 08:07:13;;;;;;;;;;;;;;;27.95;34.49;99789.28;5298957;27;34055;-82
2023/06/18 08:09:40;;;;;;;;;;;;;;;28.04;33.01;99785.47;5280467;27;32991;-82
2023/06/18 08:12:08;;;;;;;;;;;;;;;27.97;33.55;99785.38;5263035;27;32992;-82
2023/06/18 08:14:36;;;;;;;;;;;;;;;28.18;34.09;99784.69;5318445;27;34231;-82
2023/06/18 08:17:03;;;;;;;;;;;;;;;28.38;32.96;99785.09;5262121;27;34219;-82
2023/06/18 08:19:31;;;;;;;;;;;;;;;28.60;31.81;99780.66;5280010;27;33037;-83
2023/06/18 08:22:00;;;;;;;;;;;;;;;28.43;31.19;99789.97;5298741;27;33547;-83
2023/06/18 08:24:27;;;;;;;;;;;;;;;28.36;31.81;99780.87;5280451;27;33264;-83
2023/06/18 08:26:55;;;;;;;;;;;;;;;28.16;32.80;99784.06;5318314;27;34440;-83
2023/06/18 08:29:22;;;;;;;;;;;;;;;28.76;32.41;99780.50;5298721;27;33710;-83
2023/06/18 08:31:50;;;;;;;;;;;;;;;28.83;31.58;99780.59;5280906;27;33751;-83
2023/06/18 08:34:17;;;;;;;;;;;;;;;29.00;32.85;99786.72;5296179;27;33655;-83
2023/06/18 08:36:47;;;;;;;;;;;;;;;28.89;31.48;99779.03;5280743;27;33522;-83
2023/06/18 08:39:14;;;;;;;;;;;;;;;28.13;33.26;99773.53;5280936;27;33427;-83
2023/06/18 08:41:45;;;;;;;;;;;;;;;28.32;33.09;99773.06;5281578;27;35366;-83
2023/06/18 08:44:13;;;;;;;;;;;;;;;28.98;31.28;99773.34;5280797;27;33884;-83
2023/06/18 08:46:42;;;;;;;;;;;;;;;28.79;32.38;99779.28;5279701;27;34115;-82
2023/06/18 08:49:10;;;;;;;;;;;;;;;28.71;31.17;99772.06;5280131;27;33307;-82
2023/06/18 08:51:38;;;;;;;;;;;;;;;28.77;31.17;99776.78;5298501;27;34720;-83
2023/06/18 08:54:07;;;;;;;;;;;;;;;29.25;31.59;99771.00;5280403;27;33137;-82
2023/06/18 08:56:36;;;;;;;;;;;;;;;29.38;30.93;99770.31;5280285;27;34409;-82
2023/06/18 08:59:03;;;;;;;;;;;;;;;29.15;31.28;99773.16;5297672;27;33215;-83
2023/06/18 09:01:30;;;;;;;;;;;;;;;29.55;30.43;99769.12;5298317;27;34525;-82
2023/06/18 09:03:58;;;;;;;;;;;;;;;29.55;29.86;99780.84;5298110;27;34953;-82
2023/06/18 09:06:26;;;;;;;;;;;;;;;29.82;30.64;99771.13;5280365;27;33752;-83
2023/06/18 09:08:56;;;;;;;;;;;;;;;29.97;28.57;99768.34;5299291;27;32987;-82
2023/06/18 09:11:28;;;;;;;;;;;;;;;29.72;31.39;99765.16;5298776;27;34142;-82
2023/06/18 09:14:02;;;;;;;;;;;;;;;29.79;31.32;99766.06;5299322;27;35387;-82
2023/06/18 09:16:30;;;;;;;;;;;;;;;29.80;30.23;99770.44;5261574;27;34382;-82
2023/06/18 09:18:58;;;;;;;;;;;;;;;29.77;30.33;99761.84;5279962;27;33062;-83
2023/06/18 09:21:35;;;;;;;;;;;;;;;30.29;26.85;99772.47;5262509;27;33979;-83
2023/06/18 09:24:03;;;;;;;;;;;;;;;30.43;26.85;99772.56;5297903;27;34296;-82
2023/06/18 09:26:33;;;;;;;;;;;;;;;29.82;27.09;99770.28;5262040;27;34296;-82
2023/06/18 09:29:05;;;;;;;;;;;;;;;29.92;27.20;99775.41;5297706;27;34198;-83
2023/06/18 09:31:33;;;;;;;;;;;;;;;29.42;26.98;99774.34;5280122;27;33798;-83
2023/06/18 09:34:15;;;;;;;;;;;;;;;29.93;28.13;99777.09;5261420;27;33270;-83
2023/06/18 09:36:47;;;;;;;;;;;;;;;30.58;27.70;99779.66;5262293;27;34002;-82
2023/06/18 09:39:18;;;;;;;;;;;;;;;30.66;25.61;99772.34;5261584;27;32565;-83
2023/06/18 09:41:46;;;;;;;;;;;;;;;30.34;26.90;99767.28;5299158;27;34363;-83
2023/06/18 09:44:14;;;;;;;;;;;;;;;30.17;26.20;99767.75;5317517;27;34965;-83
2023/06/18 09:46:43;;;;;;;;;;;;;;;30.08;25.96;99775.16;5298369;27;33857;-83
2023/06/18 09:49:18;;;;;;;;;;;;;;;29.78;28.13;99769.81;5298758;27;33599;-83
2023/06/18 09:51:48;;;;;;;;;;;;;;;30.08;26.93;99770.56;5262841;27;32611;-83
2023/06/18 09:54:16;;;;;;;;;;;;;;;29.40;27.85;99771.00;5261971;27;34140;-83
2023/06/18 09:57:00;;;;;;;;;;;;;;;29.76;28.54;99760.97;5277383;27;34622;-83
2023/06/18 09:59:29;;;;;;;;;;;;;;;30.14;27.58;99763.50;5282212;27;32785;-82
2023/06/18 10:01:57;;;;;;;;;;;;;;;29.95;27.14;99764.13;5298723;27;34335;-83
2023/06/18 10:04:28;;;;;;;;;;;;;;;30.01;28.31;99774.25;5263337;27;33179;-82
2023/06/18 10:06:59;;;;;;;;;;;;;;;28.98;29.28;99784.22;5280614;27;34310;-83
2023/06/18 10:09:28;;;;;;;;;;;;;;;29.13;30.11;99776.06;5300070;27;33874;-82
2023/06/18 10:11:57;;;;;;;;;;;;;;;30.29;29.31;99771.59;5299826;27;34252;-83
2023/06/18 10:14:24;;;;;;;;;;;;;;;30.10;27.26;99770.38;5299646;27;35419;-82
2023/06/18 10:16:53;;;;;;;;;;;;;;;30.30;28.08;99763.25;5262798;27;34496;-83
2023/06/18 10:19:25;;;;;;;;;;;;;;;30.65;28.15;99760.59;5264091;27;32987;-82
2023/06/18 10:21:57;;;;;;;;;;;;;;;30.29;25.43;99764.31;5291496;27;34038;-83
2023/06/18 10:24:30;;;;;;;;;;;;;;;29.90;25.34;99766.59;5263609;27;32984;-82
2023/06/18 10:26:57;;;;;;;;;;;;;;;30.67;26.07;99769.44;5280790;27;33291;-83
2023/06/18 10:29:26;;;;;;;;;;;;;;;30.85;26.04;99767.06;5281739;27;32544;-82
2023/06/18 10:31:53;;;;;;;;;;;;;;;31.27;27.03;99768.00;5297995;27;34961;-83
2023/06/18 10:34:24;;;;;;;;;;;;;;;31.37;24.26;99764.87;5281045;27;34713;-83
2023/06/18 10:36:52;;;;;;;;;;;;;;;31.20;25.61;99771.72;5280752;27;33839;-82
2023/06/18 10:39:19;;;;;;;;;;;;;;;31.17;23.81;99766.66;5261725;27;33639;-83
2023/06/18 10:41:52;;;;;;;;;;;;;;;31.09;24.43;99770.38;5256342;27;33358;-82
2023/06/18 10:44:38;;;;;;;;;;;;;;;30.92;26.33;99772.59;5280830;27;33518;-83
2023/06/18 10:47:20;;;;;;;;;;;;;;;30.77;26.47;99772.69;5280111;27;34284;-83
2023/06/18 10:50:04;;;;;;;;;;;;;;;30.91;26.50;99770.91;5289685;27;33465;-83
2023/06/18 10:52:32;;;;;;;;;;;;;;;31.00;25.73;99768.84;5297704;27;32939;-83
2023/06/18 10:55:06;;;;;;;;;;;;;;;30.48;24.90;99765.53;5279139;27;32946;-83
2023/06/18 10:57:47;;;;;;;;;;;;;;;31.15;25.89;99761.41;5298054;27;34691;-83
2023/06/18 11:00:25;;;;;;;;;;;;;;;31.18;24.67;99752.78;5280013;27;33366;-83
2023/06/18 11:03:00;;;;;;;;;;;;;;;31.38;24.91;99755.66;5298369;27;32706;-83
2023/06/18 11:05:31;;;;;;;;;;;;;;;31.72;25.64;99752.03;5298588;27;33390;-83
2023/06/18 11:08:02;;;;;;;;;;;;;;;31.81;24.78;99758.97;5317782;27;34536;-83
2023/06/18 11:10:31;;;;;;;;;;;;;;;31.36;26.08;99755.88;5262379;27;32233;-83
2023/06/18 11:12:58;;;;;;;;;;;;;;;31.89;24.96;99751.66;5280276;27;33760;-83
2023/06/18 11:15:26;;;;;;;;;;;;;;;32.17;25.07;99757.81;5261681;27;33610;-83
2023/06/18 11:17:55;;;;;;;;;;;;;;;32.01;24.46;99752.75;5279872;27;33745;-83
2023/06/18 11:20:24;;;;;;;;;;;;;;;31.98;25.55;99745.81;5298764;27;33458;-85
2023/06/18 11:22:53;;;;;;;;;;;;;;;31.54;25.35;99757.22;5280345;27;33664;-83
2023/06/18 11:25:21;;;;;;;;;;;;;;;31.33;26.57;99742.66;5298572;27;35082;-83
2023/06/18 11:27:49;;;;;;;;;;;;;;;31.16;26.49;99746.72;5282323;27;33645;-83
2023/06/18 11:30:17;;;;;;;;;;;;;;;30.47;25.97;99746.62;5263920;27;33228;-82
2023/06/18 11:32:45;;;;;;;;;;;;;;;30.61;26.87;99748.41;5282927;27;33818;-83
2023/06/18 11:35:12;;;;;;;;;;;;;;;30.99;26.11;99739.91;5282449;27;34740;-83
2023/06/18 11:37:41;;;;;;;;;;;;;;;31.63;25.87;99731.41;5282418;27;32837;-82
2023/06/18 11:40:09;;;;;;;;;;;;;;;31.46;26.17;99738.28;5264225;27;32654;-83
2023/06/18 11:42:37;;;;;;;;;;;;;;;31.13;26.29;99741.66;5282107;27;34906;-83
2023/06/18 11:45:05;;;;;;;;;;;;;;;31.41;26.45;99738.03;5263873;27;34133;-83
2023/06/18 11:47:34;;;;;;;;;;;;;;;31.81;25.00;99728.94;5249707;27;883615;-83
2023/06/18 11:50:02;;;;;;;;;;;;;;;30.96;27.48;99734.87;5284368;27;33303;-83
2023/06/18 11:52:30;;;;;;;;;;;;;;;31.30;27.01;99732.13;5283682;27;33676;-83
2023/06/18 11:55:02;;;;;;;;;;;;;;;31.75;26.42;99727.03;5284483;27;35033;-83
2023/06/18 11:57:30;;;;;;;;;;;;;;;31.50;25.41;99734.09;5265640;27;33817;-84
2023/06/18 11:59:57;;;;;;;;;;;;;;;31.58;26.28;99723.00;5301728;27;34637;-83
2023/06/18 12:02:26;;;;;;;;;;;;;;;31.66;27.00;99725.53;5283975;27;33400;-84
2023/06/18 12:05:03;;;;;;;;;;;;;;;31.56;27.44;99725.91;5301897;27;33967;-84
2023/06/18 12:07:31;;;;;;;;;;;;;;;31.34;26.90;99719.78;5283633;27;34491;-85
2023/06/18 12:10:05;;;;;;;;;;;;;;;31.73;27.15;99704.56;5283485;27;33017;-83
2023/06/18 12:12:32;;;;;;;;;;;;;;;31.60;27.43;99704.53;5301133;27;34422;-85
2023/06/18 12:15:00;;;;;;;;;;;;;;;31.91;25.98;99701.28;5321456;27;34253;-83
2023/06/18 12:17:42;;;;;;;;;;;;;;;32.18;26.30;99707.59;5301955;27;34185;-83
2023/06/18 12:20:10;;;;;;;;;;;;;;;32.15;24.91;99708.03;5301784;27;33033;-83
2023/06/18 12:22:39;;;;;;;;;;;;;;;32.49;25.27;99704.25;5265615;27;34135;-83
2023/06/18 12:25:07;;;;;;;;;;;;;;;32.62;24.33;99704.25;5301810;27;35250;-83
2023/06/18 12:27:35;;;;;;;;;;;;;;;32.41;25.06;99706.34;5284047;27;34290;-83
2023/06/18 12:30:05;;;;;;;;;;;;;;;32.25;23.93;99702.97;5283648;27;33151;-82
2023/06/18 12:32:36;;;;;;;;;;;;;;;32.54;24.97;99699.00;5302260;27;33142;-82
2023/06/18 12:35:17;;;;;;;;;;;;;;;32.25;25.79;99692.06;5302513;27;34638;-83
2023/06/18 12:37:46;;;;;;;;;;;;;;;31.84;26.02;99694.94;5301459;27;34334;-83
2023/06/18 12:40:22;;;;;;;;;;;;;;;31.27;26.01;99697.06;5265488;27;32134;-83
2023/06/18 12:42:50;;;;;;;;;;;;;;;31.61;26.15;99689.81;5302113;27;34478;-83
2023/06/18 12:45:27;;;;;;;;;;;;;;;31.64;26.26;99696.78;5265014;27;32879;-83
2023/06/18 12:47:59;;;;;;;;;;;;;;;31.84;27.62;99690.31;5283666;27;32699;-83
2023/06/18 12:50:34;;;;;;;;;;;;;;;32.29;25.97;99681.53;5283918;27;33345;-83
2023/06/18 12:53:17;;;;;;;;;;;;;;;32.17;25.36;99689.50;5283393;27;33128;-82
2023/06/18 12:55:45;;;;;;;;;;;;;;;32.49;25.59;99687.03;5301532;27;33985;-83
2023/06/18 12:58:26;;;;;;;;;;;;;;;32.56;25.44;99687.84;5282895;27;34074;-83